Terminal Aerodrome Forecast
Issued by NWS

Home | Current Version | Previous Version | Text Only | Print | Product List | Glossary On
Versions: 1 2 3 4 5 6 7 8 9 10 11 12 13 14 15
000
FTUS44 KCRP 042335
TAFALI
TAF
KALI 042335Z 0500/0524 14013G20KT P6SM FEW040
     FM050200 14009KT P6SM SCT250
     FM050900 15004KT P6SM SCT015
      TEMPO 0510/0513 5SM BR
     FM051500 17014KT P6SM SCT025
     FM052000 14015G22KT P6SM SCT045=

USA.gov is the U.S. government's official web portal to all federal, state and local government web resources and services.